Terminal Aerodrome Forecast
Issued by NWS St Louis, MO

Home | Current Version | Previous Version | Text Only | Print | Product List | Glossary On
Versions: 1 2 3 4 5 6 7 8 9 10 11 12 13 14 15 16 17 18 19 20 21 22 23 24 25
722
FTUS43 KLSX 242044 AAA
TAFSTL
TAF AMD
KSTL 242044Z 2421/2524 32012G19KT P6SM VCSH BKN040
     FM250100 31007KT P6SM BKN050
     FM250600 30007KT P6SM SCT030=

USA.gov is the U.S. government's official web portal to all federal, state and local government web resources and services.